Athens, Georgia
Current Conditions -  °F | °C
As of 10:51 AM on Friday 28 Nov 2014 (Local Time) from KAHN Reporting Station
Clear Clear  
Wind Chill: 37°   Ceiling: Unl
Heat Index: 40°   Visibility: 10mi
Dew Point: 21°   Wind: 5mph
Humidity: 47%   Direction: NA
Pressure: 30.4"   Gusts: NA
Location:  33.96°N, 83.37°W
Report Text: KAHN 281551Z VRB04KT 10SM CLR 04/M06 A3040 RMK AO2 SLP299 T00441061
Loading
Personal Weather Stations






























Interactive Weather Map New forecast layout! Learn more

10-Day Weather Forecast

Advertisements
Track Severe Weather on mobile